Time;durP1;ratioP1;P1;durP2;ratioP2;P2;SDS_P1;SDS_P2;PMS_P1;PMS_P2;Temp;Humidity;BMP_temperature;BMP_pressure;BME280_temperature;BME280_humidity;BME280_pressure;Samples;Min_cycle;Max_cycle;Signal;HPM_P1;HPM_P2
2023/07/20 00:01:26;;;;;;;7.90;4.43;;;538.20;2406.40;;;;;;5052939;28;20022;-80
2023/07/20 00:03:57;;;;;;;11.35;4.43;;;538.10;2406.40;;;;;;5034577;28;20063;-80
2023/07/20 00:06:24;;;;;;;9.63;4.20;;;538.10;2406.40;;;;;;5050274;28;20059;-81
2023/07/20 00:08:51;;;;;;;7.65;4.68;;;538.10;2406.40;;;;;;5071835;28;20037;-80
2023/07/20 00:11:17;;;;;;;8.18;4.93;;;538.10;2406.40;;;;;;5071844;28;20394;-80
2023/07/20 00:13:43;;;;;;;9.77;4.32;;;538.10;2406.40;;;;;;5067207;28;20039;-80
2023/07/20 00:16:09;;;;;;;8.13;4.53;;;538.20;2406.40;;;;;;5066166;28;20477;-79
2023/07/20 00:18:34;;;;;;;8.82;5.05;;;538.00;2406.40;;;;;;5053851;28;20071;-80
2023/07/20 00:21:01;;;;;;;8.70;4.72;;;538.00;2406.40;;;;;;5055870;28;20029;-82
2023/07/20 00:23:27;;;;;;;9.63;4.43;;;538.40;2406.40;;;;;;5054667;28;21897;-79
2023/07/20 00:25:53;;;;;;;9.93;4.55;;;538.10;2406.40;;;;;;5059764;28;20036;-82
2023/07/20 00:28:19;;;;;;;9.85;4.18;;;538.20;2406.40;;;;;;5068265;28;20037;-82
2023/07/20 00:30:45;;;;;;;10.38;4.07;;;538.10;2406.40;;;;;;5057013;28;20043;-82
2023/07/20 00:33:11;;;;;;;12.90;5.50;;;538.00;2406.40;;;;;;5075331;28;20036;-83
2023/07/20 00:35:38;;;;;;;11.48;4.60;;;537.90;2406.40;;;;;;5074125;28;20411;-82
2023/07/20 00:38:04;;;;;;;13.90;4.75;;;537.70;2406.40;;;;;;5067010;28;20045;-80
2023/07/20 00:40:40;;;;;;;10.65;4.53;;;;;;;;;;5073952;28;20052;-80
2023/07/20 00:43:06;;;;;;;12.80;4.57;;;;;;;;;;5075436;28;20044;-80
2023/07/20 00:45:33;;;;;;;11.40;4.93;;;;;;;;;;5075566;28;20020;-80
2023/07/20 00:48:01;;;;;;;13.45;5.28;;;512.70;2380.80;;;;;;5069172;28;20048;-80
2023/07/20 00:50:28;;;;;;;13.27;4.70;;;512.60;2380.80;;;;;;5054894;28;20036;-80
2023/07/20 00:52:56;;;;;;;10.40;4.15;;;512.30;2380.80;;;;;;5055250;28;20029;-83
2023/07/20 00:55:23;;;;;;;12.85;4.78;;;512.20;2380.80;;;;;;5055139;28;20132;-80
2023/07/20 00:57:49;;;;;;;14.18;5.25;;;512.00;2380.80;;;;;;5061847;28;20525;-82
2023/07/20 01:00:15;;;;;;;11.20;4.78;;;487.10;2380.80;;;;;;5074545;28;20502;-80
2023/07/20 01:02:41;;;;;;;11.48;4.82;;;487.20;2380.80;;;;;;5063701;28;20092;-82
2023/07/20 01:05:08;;;;;;;11.73;4.85;;;487.20;2380.80;;;;;;5054457;28;20067;-81
2023/07/20 01:07:52;;;;;;;11.70;5.40;;;487.20;2380.80;;;;;;5037079;28;20032;-81
2023/07/20 01:10:31;;;;;;;11.98;5.72;;;487.00;2380.80;;;;;;5047268;28;20043;-82
2023/07/20 01:12:58;;;;;;;13.68;6.00;;;487.00;2380.80;;;;;;5075192;28;20389;-82
2023/07/20 01:15:24;;;;;;;12.13;6.05;;;486.80;2380.80;;;;;;5071780;28;20028;-82
2023/07/20 01:17:49;;;;;;;11.70;5.32;;;486.80;2380.80;;;;;;5056443;28;20036;-82
2023/07/20 01:20:17;;;;;;;11.95;5.05;;;;;;;;;;5050415;28;20473;-82
2023/07/20 01:23:00;;;;;;;11.80;5.20;;;487.10;2380.80;;;;;;5074821;28;20509;-82
2023/07/20 01:25:41;;;;;;;11.73;5.47;;;486.90;2380.80;;;;;;5074176;28;20449;-81
2023/07/20 01:28:19;;;;;;;13.60;5.70;;;486.80;2380.80;;;;;;5041186;28;20065;-82
2023/07/20 01:31:22;;;;;;;13.50;5.93;;;486.70;2380.80;;;;;;5042508;28;20451;-82
2023/07/20 01:33:50;;;;;;;10.65;5.03;;;486.60;2380.80;;;;;;5055412;28;20032;-82
2023/07/20 01:36:18;;;;;;;10.93;4.90;;;486.80;2380.80;;;;;;5053584;28;20087;-82
2023/07/20 01:38:45;;;;;;;14.98;5.70;;;487.00;2380.80;;;;;;5054307;28;20021;-82
2023/07/20 01:41:11;;;;;;;18.02;6.13;;;486.90;2380.80;;;;;;5063902;28;20028;-81
2023/07/20 01:43:37;;;;;;;10.45;5.70;;;486.80;2380.80;;;;;;5055943;28;20016;-81
2023/07/20 01:46:03;;;;;;;15.85;6.45;;;486.80;2380.80;;;;;;5074300;28;20135;-81
2023/07/20 01:48:29;;;;;;;15.65;6.00;;;486.60;2380.80;;;;;;5071249;28;20028;-81
2023/07/20 01:50:54;;;;;;;14.23;5.97;;;486.70;2380.80;;;;;;5072172;28;20079;-81
2023/07/20 01:53:21;;;;;;;12.65;6.03;;;486.70;2380.80;;;;;;5073837;28;20090;-81
2023/07/20 01:55:46;;;;;;;10.38;5.40;;;486.80;2380.80;;;;;;5055757;28;20040;-82
2023/07/20 01:58:12;;;;;;;12.85;5.60;;;486.90;2380.80;;;;;;5056753;28;20489;-81
2023/07/20 02:00:38;;;;;;;13.35;6.07;;;487.00;2380.80;;;;;;5053746;28;20043;-81
2023/07/20 02:03:04;;;;;;;11.07;5.80;;;487.00;2380.80;;;;;;5054135;28;20025;-82
2023/07/20 02:05:30;;;;;;;13.43;5.70;;;487.00;2380.80;;;;;;5067363;28;20059;-81
2023/07/20 02:07:56;;;;;;;12.65;6.55;;;487.00;2380.80;;;;;;5073930;28;20043;-81
2023/07/20 02:10:22;;;;;;;14.48;6.40;;;487.00;2380.80;;;;;;5071425;28;20051;-81
2023/07/20 02:12:48;;;;;;;13.40;7.07;;;486.90;2380.80;;;;;;5063246;28;20082;-81
2023/07/20 02:15:16;;;;;;;14.68;6.60;;;486.80;2380.80;;;;;;5053365;28;20055;-81
2023/07/20 02:17:42;;;;;;;12.30;6.70;;;486.90;2380.80;;;;;;5054835;28;20055;-81
2023/07/20 02:20:09;;;;;;;12.02;7.28;;;486.90;2380.80;;;;;;5053159;28;20033;-81
2023/07/20 02:22:36;;;;;;;13.65;7.15;;;487.00;2380.80;;;;;;5053204;28;20033;-81
2023/07/20 02:25:07;;;;;;;10.90;7.10;;;487.20;2380.80;;;;;;5052791;28;20066;-82
2023/07/20 02:27:36;;;;;;;12.43;6.00;;;487.30;2380.80;;;;;;5072827;28;20072;-81
2023/07/20 02:30:03;;;;;;;14.02;6.05;;;487.30;2380.80;;;;;;5068856;28;20107;-81
2023/07/20 02:32:28;;;;;;;9.43;5.18;;;512.00;2380.80;;;;;;5072179;28;20045;-81
2023/07/20 02:34:54;;;;;;;10.60;4.80;;;512.00;2380.80;;;;;;5054422;28;20032;-81
2023/07/20 02:37:20;;;;;;;11.52;5.00;;;512.10;2380.80;;;;;;5054938;28;20036;-80
2023/07/20 02:39:45;;;;;;;8.02;4.20;;;512.10;2380.80;;;;;;5071214;28;20093;-82
2023/07/20 02:42:11;;;;;;;6.65;4.20;;;512.10;2380.80;;;;;;5057774;28;20052;-79
2023/07/20 02:44:37;;;;;;;8.98;4.22;;;512.20;2380.80;;;;;;5052380;28;20028;-80
2023/07/20 02:47:02;;;;;;;7.10;3.88;;;512.30;2380.80;;;;;;5053151;28;20068;-79
2023/07/20 02:49:28;;;;;;;10.75;4.35;;;512.40;2380.80;;;;;;5052069;28;20043;-81
2023/07/20 02:51:54;;;;;;;8.85;4.03;;;512.50;2380.80;;;;;;5053973;28;20055;-80
2023/07/20 02:54:21;;;;;;;6.57;4.03;;;512.50;2380.80;;;;;;5051920;28;20063;-81
2023/07/20 02:56:46;;;;;;;11.55;4.60;;;512.60;2380.80;;;;;;5054177;28;20048;-81
2023/07/20 02:59:12;;;;;;;8.90;3.90;;;512.80;2380.80;;;;;;5071547;28;20470;-80
2023/07/20 03:01:38;;;;;;;7.90;4.10;;;512.60;2380.80;;;;;;5071208;28;20028;-81
2023/07/20 03:04:04;;;;;;;9.27;4.13;;;512.70;2380.80;;;;;;5070966;28;20482;-80
2023/07/20 03:06:30;;;;;;;7.38;3.90;;;512.70;2380.80;;;;;;5072534;28;20415;-81
2023/07/20 03:08:56;;;;;;;8.82;3.78;;;512.80;2380.80;;;;;;5072607;28;20115;-81
2023/07/20 03:11:22;;;;;;;9.43;4.07;;;512.80;2380.80;;;;;;5052281;28;20079;-80
2023/07/20 03:13:48;;;;;;;9.68;4.15;;;512.80;2380.80;;;;;;5061813;28;20045;-81
2023/07/20 03:16:17;;;;;;;9.15;3.95;;;512.80;2380.80;;;;;;5052529;28;20044;-81
2023/07/20 03:18:43;;;;;;;8.55;4.25;;;;;;;;;;5052867;28;20017;-80
2023/07/20 03:21:13;;;;;;;8.18;4.22;;;;;;;;;;5062099;28;20039;-81
2023/07/20 03:23:40;;;;;;;8.07;4.57;;;;;;;;;;5070272;28;20048;-83
2023/07/20 03:26:08;;;;;;;7.85;3.90;;;512.80;2380.80;;;;;;5065439;28;20543;-80
2023/07/20 03:28:34;;;;;;;9.63;4.05;;;512.80;2380.80;;;;;;5034084;28;20548;-80
2023/07/20 03:31:00;;;;;;;8.38;4.10;;;512.80;2380.80;;;;;;5052503;28;20037;-80
2023/07/20 03:33:28;;;;;;;6.57;3.92;;;512.80;2380.80;;;;;;5034209;28;20033;-80
2023/07/20 03:35:54;;;;;;;8.55;4.10;;;;;;;;;;5052570;28;20082;-80
2023/07/20 03:38:21;;;;;;;7.95;4.13;;;;;;;;;;5052290;28;20103;-80
2023/07/20 03:40:58;;;;;;;7.70;4.38;;;537.70;2406.40;;;;;;5053290;28;20024;-80
2023/07/20 03:43:25;;;;;;;11.45;4.68;;;537.60;2406.40;;;;;;5051216;28;20094;-80
2023/07/20 03:45:52;;;;;;;8.02;4.03;;;512.90;2380.80;;;;;;5069936;28;20082;-80
2023/07/20 03:48:22;;;;;;;8.35;4.28;;;512.90;2380.80;;;;;;5071926;28;20039;-80
2023/07/20 03:50:50;;;;;;;9.77;4.53;;;512.90;2380.80;;;;;;5070335;28;20544;-80
2023/07/20 03:53:16;;;;;;;7.35;4.50;;;512.90;2380.80;;;;;;5074421;28;20041;-80
2023/07/20 03:55:47;;;;;;;11.90;4.00;;;512.90;2380.80;;;;;;5074366;28;20573;-81
2023/07/20 03:58:13;;;;;;;9.27;4.47;;;;;;;;;;5058690;28;20067;-80
2023/07/20 04:00:40;;;;;;;7.20;4.40;;;;;;;;;;5061979;28;20051;-81
2023/07/20 04:03:06;;;;;;;12.50;5.13;;;;;;;;;;5058147;28;20047;-81
2023/07/20 04:05:32;;;;;;;11.02;5.00;;;;;;;;;;5076224;28;20092;-81
2023/07/20 04:07:59;;;;;;;6.40;4.68;;;;;;;;;;5065722;28;20039;-80
2023/07/20 04:10:25;;;;;;;8.45;4.35;;;;;;;;;;5065391;28;20040;-80
2023/07/20 04:12:50;;;;;;;6.80;3.90;;;537.90;2406.40;;;;;;5055976;28;20033;-81
2023/07/20 04:15:16;;;;;;;9.20;4.53;;;537.70;2406.40;;;;;;5037893;28;20379;-81
2023/07/20 04:17:42;;;;;;;8.30;3.97;;;537.70;2406.40;;;;;;5060091;28;20020;-80
2023/07/20 04:20:08;;;;;;;8.70;4.22;;;537.70;2406.40;;;;;;5075803;28;20028;-81
2023/07/20 04:22:34;;;;;;;6.93;3.90;;;537.70;2406.40;;;;;;5074469;28;20119;-82
2023/07/20 04:25:00;;;;;;;6.80;4.10;;;537.70;2406.40;;;;;;5075487;28;20081;-80
2023/07/20 04:27:26;;;;;;;7.35;4.10;;;537.70;2406.40;;;;;;5069602;28;20492;-80
2023/07/20 04:29:52;;;;;;;10.68;4.38;;;537.70;2406.40;;;;;;5054296;28;20045;-80
2023/07/20 04:32:17;;;;;;;9.98;4.13;;;537.70;2406.40;;;;;;5054268;28;20497;-81
2023/07/20 04:34:43;;;;;;;7.18;4.20;;;537.70;2406.40;;;;;;5055412;28;20048;-81
2023/07/20 04:37:09;;;;;;;12.25;4.82;;;537.70;2406.40;;;;;;5060335;28;20462;-81
2023/07/20 04:39:35;;;;;;;9.07;4.57;;;537.60;2406.40;;;;;;5055199;28;20041;-81
2023/07/20 04:42:00;;;;;;;7.03;4.00;;;537.60;2406.40;;;;;;5037395;28;20036;-81
2023/07/20 04:44:26;;;;;;;9.38;4.50;;;512.90;2380.80;;;;;;5037212;28;20039;-81
2023/07/20 04:46:52;;;;;;;7.20;4.10;;;537.60;2406.40;;;;;;5055652;28;20056;-80
2023/07/20 04:49:18;;;;;;;7.65;4.40;;;537.70;2406.40;;;;;;5055919;28;20025;-80
2023/07/20 04:51:44;;;;;;;7.97;4.00;;;537.60;2406.40;;;;;;5071833;28;20033;-80
2023/07/20 04:54:10;;;;;;;10.10;4.50;;;537.70;2406.40;;;;;;5074976;28;20028;-79
2023/07/20 04:56:36;;;;;;;8.75;4.20;;;537.70;2406.40;;;;;;5072745;28;20058;-80
2023/07/20 04:59:01;;;;;;;6.93;3.95;;;537.70;2406.40;;;;;;5038281;28;20033;-81
2023/07/20 05:01:27;;;;;;;6.80;3.78;;;537.70;2406.40;;;;;;5060148;28;20048;-81
2023/07/20 05:03:53;;;;;;;7.90;3.88;;;537.70;2406.40;;;;;;5062744;28;20034;-79
2023/07/20 05:06:19;;;;;;;7.45;3.83;;;537.70;2406.40;;;;;;5073018;28;20033;-79
2023/07/20 05:08:45;;;;;;;10.10;3.83;;;537.70;2406.40;;;;;;5046017;28;20029;-80
2023/07/20 05:11:11;;;;;;;6.95;4.13;;;537.70;2406.40;;;;;;5065919;28;20048;-81
2023/07/20 05:13:37;;;;;;;7.20;3.90;;;537.70;2406.40;;;;;;5047228;28;20032;-80
2023/07/20 05:16:03;;;;;;;7.95;4.00;;;537.70;2406.40;;;;;;5064694;28;20120;-79
2023/07/20 05:18:29;;;;;;;12.43;4.38;;;537.70;2406.40;;;;;;5066790;28;20031;-81
2023/07/20 05:20:55;;;;;;;7.18;3.90;;;537.60;2406.40;;;;;;5082886;28;20186;-80
2023/07/20 05:23:21;;;;;;;7.15;3.45;;;537.70;2406.40;;;;;;5089508;28;20047;-80
2023/07/20 05:25:48;;;;;;;7.80;3.78;;;;;;;;;;5090423;28;20036;-80
2023/07/20 05:28:13;;;;;;;8.30;4.07;;;538.10;2406.40;;;;;;5072120;28;20036;-80
2023/07/20 05:30:40;;;;;;;7.18;3.67;;;537.90;2406.40;;;;;;5077910;28;20044;-80
2023/07/20 05:33:06;;;;;;;6.38;3.70;;;537.90;2406.40;;;;;;5050458;28;20021;-81
2023/07/20 05:35:31;;;;;;;7.57;3.30;;;538.00;2406.40;;;;;;5047606;28;20119;-80
2023/07/20 05:37:57;;;;;;;6.88;3.90;;;538.10;2406.40;;;;;;5041881;28;20032;-81
2023/07/20 05:40:23;;;;;;;5.97;3.42;;;538.10;2406.40;;;;;;5056589;28;20045;-81
2023/07/20 05:42:51;;;;;;;9.88;3.67;;;538.00;2406.40;;;;;;5038876;28;20086;-81
2023/07/20 08:06:52;;;;;;;6.88;3.60;;;;;;;;;;5088407;27;1456966;-81
2023/07/20 08:09:18;;;;;;;7.20;3.35;;;;;;;;;;5130577;28;20062;-80
2023/07/20 08:11:44;;;;;;;5.03;2.95;;;;;;;;;;5131147;28;20380;-81
2023/07/20 08:14:10;;;;;;;7.10;3.55;;;;;;;;;;5123444;28;20024;-80
2023/07/20 08:16:36;;;;;;;7.78;3.05;;;;;;;;;;5114448;28;20034;-81
2023/07/20 08:19:02;;;;;;;4.45;3.20;;;;;;;;;;5111936;28;20024;-82
2023/07/20 08:21:28;;;;;;;6.40;3.17;;;;;;;;;;5115656;28;20027;-81
2023/07/20 08:23:54;;;;;;;6.75;3.40;;;;;;;;;;5128580;28;20035;-81
2023/07/20 08:26:22;;;;;;;6.10;3.25;;;;;;;;;;5110932;28;20084;-82
2023/07/20 08:28:48;;;;;;;5.43;3.35;;;;;;;;;;5120011;28;20130;-83
2023/07/20 08:31:14;;;;;;;7.30;3.38;;;;;;;;;;5110946;28;20028;-82
2023/07/20 08:33:40;;;;;;;8.63;3.15;;;;;;;;;;5092377;28;20126;-81
2023/07/20 08:36:06;;;;;;;6.82;3.53;;;;;;;;;;5092911;28;20350;-82
2023/07/20 08:38:32;;;;;;;6.70;3.40;;;;;;;;;;5110141;28;20034;-81
2023/07/20 08:40:59;;;;;;;6.75;3.60;;;;;;;;;;5092396;28;20028;-80
2023/07/20 08:43:26;;;;;;;7.07;3.50;;;;;;;;;;5110531;28;20039;-79
2023/07/20 08:45:54;;;;;;;6.15;3.75;;;717.30;2432.00;;;;;;5110174;28;20103;-81
2023/07/20 08:48:21;;;;;;;6.63;3.80;;;;;;;;;;5110326;28;20116;-81
2023/07/20 08:50:50;;;;;;;6.63;3.40;;;742.40;2432.00;;;;;;5092433;28;20035;-82
2023/07/20 08:53:16;;;;;;;6.72;3.38;;;;;;;;;;5091911;28;20472;-82
2023/07/20 08:55:45;;;;;;;7.22;3.40;;;;;;;;;;5103447;28;20028;-81
2023/07/20 08:58:12;;;;;;;5.60;3.47;;;743.00;2432.00;;;;;;5103489;28;20020;-83
2023/07/20 09:00:42;;;;;;;6.53;3.40;;;;;;;;;;5090837;28;20048;-81
2023/07/20 09:03:08;;;;;;;7.60;3.70;;;743.10;2432.00;;;;;;5100002;28;20044;-80
2023/07/20 09:05:35;;;;;;;7.70;3.47;;;;;;;;;;5104736;28;20031;-81
2023/07/20 09:08:03;;;;;;;6.47;3.42;;;768.00;2432.00;;;;;;5100154;28;20047;-82
2023/07/20 09:10:29;;;;;;;5.68;3.50;;;768.00;2432.00;;;;;;5081649;28;20373;-81
2023/07/20 09:12:55;;;;;;;7.95;4.28;;;768.30;2432.00;;;;;;5100073;28;20020;-78
2023/07/20 09:15:22;;;;;;;5.40;3.40;;;;;;;;;;5109842;28;20425;-79
2023/07/20 09:17:50;;;;;;;6.00;4.40;;;768.80;2406.40;;;;;;5112292;28;20020;-79
2023/07/20 09:20:20;;;;;;;5.45;3.22;;;768.90;2432.00;;;;;;5107605;28;20032;-81
2023/07/20 09:22:46;;;;;;;8.75;3.60;;;768.70;2380.80;;;;;;5095489;28;20127;-80
2023/07/20 09:25:22;;;;;;;6.75;3.60;;;768.70;2329.60;;;;;;5097113;28;20020;-85
2023/07/20 09:27:48;;;;;;;5.70;3.40;;;;;;;;;;5110766;28;20110;-78
2023/07/20 09:30:16;;;;;;;6.95;3.55;;;;;;;;;;5110733;28;20012;-77
2023/07/20 09:32:46;;;;;;;4.70;3.30;;;;;;;;;;5111310;28;20028;-77
2023/07/20 09:35:20;;;;;;;5.43;3.47;;;794.20;2227.20;;;;;;5095248;28;20016;-82
2023/07/20 09:38:00;;;;;;;6.65;3.40;;;;;;;;;;5100953;28;20028;-83
2023/07/20 09:40:29;;;;;;;6.28;3.30;;;;;;;;;;5102278;28;20035;-77
2023/07/20 09:43:04;;;;;;;5.43;3.33;;;819.70;2048.00;;;;;;5100835;28;20489;-78
2023/07/20 09:45:33;;;;;;;5.95;3.42;;;819.60;2022.40;;;;;;5077547;28;20415;-83
2023/07/20 09:48:09;;;;;;;7.38;3.70;;;819.70;1996.80;;;;;;5080635;28;20036;-81
2023/07/20 09:50:42;;;;;;;6.30;3.55;;;819.80;2048.00;;;;;;5103266;28;20016;-83
2023/07/20 09:53:09;;;;;;;6.72;3.15;;;;;;;;;;5114586;28;20043;-84
2023/07/20 09:55:36;;;;;;;9.48;3.42;;;;;;;;;;5108484;28;20529;-78
2023/07/20 09:58:03;;;;;;;6.85;3.33;;;;;;;;;;5103563;28;20035;-78
2023/07/20 10:00:29;;;;;;;6.47;3.22;;;845.30;1945.60;;;;;;5091318;28;20037;-84
2023/07/20 10:02:57;;;;;;;8.00;3.90;;;844.90;1996.80;;;;;;5114089;28;20062;-84
2023/07/20 10:05:27;;;;;;;4.90;3.20;;;845.00;1971.20;;;;;;5106274;28;20027;-87
2023/07/20 10:07:54;;;;;;;7.57;3.55;;;845.60;1945.60;;;;;;5100407;28;20043;-84
2023/07/20 10:10:20;;;;;;;7.40;3.60;;;845.40;1894.40;;;;;;5100889;28;20024;-88
2023/07/20 10:12:48;;;;;;;7.15;3.30;;;845.20;1945.60;;;;;;5103645;28;20031;-82
2023/07/20 10:15:24;;;;;;;5.63;3.38;;;845.20;1920.00;;;;;;5105477;28;20020;-85
2023/07/20 10:18:06;;;;;;;6.38;3.40;;;;;;;;;;5085863;28;20134;-81
2023/07/20 10:20:33;;;;;;;7.93;3.42;;;870.50;1894.40;;;;;;5075678;28;20028;-82
2023/07/20 10:22:59;;;;;;;7.05;3.40;;;845.20;1894.40;;;;;;5082602;28;20477;-80
2023/07/20 10:25:26;;;;;;;6.03;3.20;;;845.50;1740.80;;;;;;5105647;28;20080;-80
2023/07/20 10:31:15;;;;;;;4.10;3.00;;;870.40;1689.60;;;;;;5104783;28;20027;-83
2023/07/20 10:33:42;;;;;;;4.50;3.00;;;;;;;;;;5101193;28;20038;-84
2023/07/20 10:36:08;;;;;;;5.55;3.03;;;;;;;;;;5107378;28;25763;-85
2023/07/20 10:38:42;;;;;;;6.90;3.13;;;871.00;1638.40;;;;;;5106696;28;20019;-81
2023/07/20 10:41:27;;;;;;;4.18;2.70;;;871.10;1664.00;;;;;;5104123;28;20490;-81
2023/07/20 10:44:00;;;;;;;4.43;3.05;;;871.00;1638.40;;;;;;5087905;28;20052;-83
2023/07/20 10:46:35;;;;;;;4.50;2.72;;;;;;;;;;5102534;28;20031;-84
2023/07/20 10:49:02;;;;;;;6.65;3.25;;;;;;;;;;5104053;28;20520;-83
2023/07/20 10:51:29;;;;;;;5.03;3.28;;;;;;;;;;5104509;28;20062;-84
2023/07/20 10:53:58;;;;;;;5.57;3.00;;;871.30;1587.20;;;;;;5102106;28;20077;-83
2023/07/20 10:56:30;;;;;;;4.47;2.85;;;871.20;1587.20;;;;;;5099615;28;20012;-81
2023/07/20 10:59:00;;;;;;;4.85;2.60;;;870.90;1561.60;;;;;;5081851;28;20066;-82
2023/07/20 11:01:33;;;;;;;3.80;2.83;;;871.00;1536.00;;;;;;5100572;28;20024;-85
2023/07/20 11:04:03;;;;;;;5.18;3.03;;;871.00;1536.00;;;;;;5091321;28;20119;-84
2023/07/20 11:06:29;;;;;;;4.40;2.72;;;871.10;1510.40;;;;;;5104425;28;20071;-83
2023/07/20 11:08:56;;;;;;;4.85;3.05;;;871.20;1510.40;;;;;;5101741;28;20023;-87
2023/07/20 11:11:23;;;;;;;5.13;2.42;;;896.30;1510.40;;;;;;5080942;28;20026;-84
2023/07/20 11:14:00;;;;;;;5.00;2.78;;;896.00;1459.20;;;;;;5108584;28;20114;-83
2023/07/20 11:16:45;;;;;;;3.92;2.80;;;896.00;1433.60;;;;;;5100775;28;20055;-83
2023/07/20 11:19:15;;;;;;;6.63;3.03;;;871.00;1484.80;;;;;;5101260;28;20016;-83
2023/07/20 11:21:42;;;;;;;4.75;2.90;;;871.20;1484.80;;;;;;5107609;28;20047;-83
2023/07/20 11:24:09;;;;;;;7.22;4.20;;;896.00;1459.20;;;;;;5106093;28;20012;-81
2023/07/20 11:27:01;;;;;;;5.97;3.38;;;896.20;1459.20;;;;;;5104626;28;20114;-83
2023/07/20 11:29:27;;;;;;;8.13;3.03;;;;;;;;;;5093872;28;20024;-85
2023/07/20 11:31:53;;;;;;;11.63;5.70;;;;;;;;;;5103705;28;20020;-84
2023/07/20 11:34:21;;;;;;;6.72;2.90;;;;;;;;;;5079203;28;20081;-83
2023/07/20 11:36:51;;;;;;;4.25;2.70;;;;;;;;;;5108458;28;20024;-83
2023/07/20 11:39:22;;;;;;;3.65;2.65;;;;;;;;;;5089934;28;20036;-79
2023/07/20 11:41:49;;;;;;;9.57;4.80;;;;;;;;;;5103801;28;20023;-82
2023/07/20 11:44:19;;;;;;;7.07;3.40;;;;;;;;;;5109156;28;20023;-82
2023/07/20 11:46:45;;;;;;;5.68;3.10;;;;;;;;;;5103132;28;20027;-82
2023/07/20 11:49:12;;;;;;;6.72;3.00;;;;;;;;;;5102799;28;20032;-81
2023/07/20 11:51:38;;;;;;;5.78;2.72;;;;;;;;;;5082142;28;20063;-82
2023/07/20 11:54:05;;;;;;;5.25;3.20;;;;;;;;;;5105385;28;20473;-80
2023/07/20 11:56:31;;;;;;;3.63;2.95;;;;;;;;;;5102137;28;20043;-81
2023/07/20 11:59:02;;;;;;;4.90;2.88;;;;;;;;;;5101813;28;20024;-79
2023/07/20 12:01:31;;;;;;;4.82;2.92;;;;;;;;;;5107658;28;20019;-81
2023/07/20 12:03:58;;;;;;;3.72;2.90;;;;;;;;;;5105328;28;20706;-81
2023/07/20 12:06:25;;;;;;;6.32;2.90;;;;;;;;;;5108278;28;20024;-80
2023/07/20 12:08:51;;;;;;;5.90;2.95;;;;;;;;;;5102340;28;20035;-80
2023/07/20 12:11:32;;;;;;;6.97;3.17;;;;;;;;;;5104626;28;20020;-80
2023/07/20 12:13:59;;;;;;;5.15;3.00;;;;;;;;;;5082221;28;20043;-80
2023/07/20 12:16:27;;;;;;;5.55;2.90;;;;;;;;;;5098539;28;20080;-80
2023/07/20 12:19:01;;;;;;;5.32;3.00;;;;;;;;;;5082997;28;20032;-84
2023/07/20 12:21:27;;;;;;;7.85;3.17;;;;;;;;;;5087019;28;20392;-80
2023/07/20 12:23:53;;;;;;;4.22;2.90;;;;;;;;;;5106354;28;20377;-80
2023/07/20 12:26:22;;;;;;;5.18;3.15;;;;;;;;;;5082891;28;20429;-79
2023/07/20 12:28:49;;;;;;;6.45;4.20;;;;;;;;;;5105864;28;20024;-78
2023/07/20 12:31:16;;;;;;;5.80;3.40;;;;;;;;;;5103300;28;20127;-79
2023/07/20 12:33:42;;;;;;;4.63;3.22;;;;;;;;;;5106226;28;20039;-79
2023/07/20 12:36:09;;;;;;;6.00;3.45;;;;;;;;;;5105275;28;20035;-79
2023/07/20 12:38:36;;;;;;;4.88;3.00;;;;;;;;;;5109345;28;20036;-78
2023/07/20 12:41:02;;;;;;;5.57;2.95;;;;;;;;;;5102746;28;20092;-77
2023/07/20 12:43:29;;;;;;;4.13;3.10;;;;;;;;;;5106608;28;20028;-79
2023/07/20 12:45:55;;;;;;;6.10;2.97;;;896.20;1459.20;;;;;;5089121;28;20480;-79
2023/07/20 12:48:21;;;;;;;4.50;2.95;;;870.80;1484.80;;;;;;5087949;28;20038;-80
2023/07/20 12:50:47;;;;;;;4.00;2.97;;;870.80;1510.40;;;;;;5108450;28;20099;-80
2023/07/20 12:53:13;;;;;;;4.35;2.70;;;871.20;1484.80;;;;;;5106734;28;20457;-78
2023/07/20 12:55:39;;;;;;;8.23;3.30;;;871.30;1459.20;;;;;;5110227;28;20028;-84
2023/07/20 12:58:06;;;;;;;6.25;3.00;;;896.10;1459.20;;;;;;5094671;28;20473;-81
2023/07/20 13:00:32;;;;;;;5.43;3.00;;;896.60;1433.60;;;;;;5095221;28;20040;-83
2023/07/20 13:02:58;;;;;;;6.38;3.35;;;921.90;1382.40;;;;;;5107942;28;20141;-79
2023/07/20 13:05:24;;;;;;;5.80;3.40;;;921.90;1433.60;;;;;;5104659;28;20024;-77
2023/07/20 13:07:49;;;;;;;7.53;3.00;;;921.80;1433.60;;;;;;5103340;28;20495;-81
2023/07/20 13:10:16;;;;;;;7.35;3.20;;;896.90;1408.00;;;;;;5086865;28;20038;-81
2023/07/20 13:12:41;;;;;;;4.25;3.13;;;921.60;1408.00;;;;;;5104228;28;20050;-80
2023/07/20 13:15:09;;;;;;;6.63;3.33;;;896.80;1382.40;;;;;;5100634;28;20384;-79
2023/07/20 13:17:40;;;;;;;8.20;3.20;;;896.90;1408.00;;;;;;5089267;28;20467;-76
2023/07/20 13:20:09;;;;;;;5.80;3.85;;;921.60;1408.00;;;;;;5113195;28;20073;-77
2023/07/20 13:22:36;;;;;;;7.97;3.05;;;921.70;1433.60;;;;;;5108030;28;20543;-80
2023/07/20 13:25:03;;;;;;;6.38;3.10;;;;;;;;;;5107039;28;20027;-82
2023/07/20 13:27:30;;;;;;;7.72;3.10;;;;;;;;;;5103990;28;20047;-84
2023/07/20 13:29:56;;;;;;;6.13;3.38;;;;;;;;;;5107307;28;20037;-81
2023/07/20 13:32:23;;;;;;;5.35;3.20;;;;;;;;;;5085039;28;20495;-79
2023/07/20 13:34:49;;;;;;;5.25;3.00;;;;;;;;;;5101539;28;20024;-77
2023/07/20 13:37:16;;;;;;;5.72;2.97;;;;;;;;;;5104507;28;20020;-79
2023/07/20 13:39:42;;;;;;;6.15;3.15;;;;;;;;;;5088119;28;20093;-77
2023/07/20 13:42:12;;;;;;;5.80;3.90;;;;;;;;;;5104147;28;20469;-83
2023/07/20 13:44:38;;;;;;;5.97;3.30;;;;;;;;;;5104034;28;20012;-82
2023/07/20 13:47:07;;;;;;;5.30;3.00;;;;;;;;;;5108305;28;20024;-81
2023/07/20 13:49:33;;;;;;;4.97;3.13;;;922.50;1305.60;;;;;;5095129;28;20034;-80
2023/07/20 13:51:59;;;;;;;5.60;3.20;;;921.60;1356.80;;;;;;5088329;28;20027;-84
2023/07/20 13:54:25;;;;;;;6.53;3.30;;;921.80;1408.00;;;;;;5086779;28;20032;-82
2023/07/20 13:56:51;;;;;;;4.82;3.20;;;921.90;1356.80;;;;;;5087616;28;20028;-80
2023/07/20 13:59:20;;;;;;;3.83;3.08;;;947.20;1356.80;;;;;;5086792;28;20044;-81
2023/07/20 14:01:47;;;;;;;4.90;2.90;;;922.40;1331.20;;;;;;5106796;28;20035;-79
2023/07/20 14:04:12;;;;;;;4.93;3.03;;;947.50;1331.20;;;;;;5104332;28;20039;-79
2023/07/20 14:06:38;;;;;;;6.10;3.17;;;922.50;1305.60;;;;;;5098211;28;20040;-81
2023/07/20 14:09:04;;;;;;;4.88;2.90;;;922.50;1305.60;;;;;;5102296;28;20111;-81
2023/07/20 14:11:30;;;;;;;5.53;2.70;;;922.40;1305.60;;;;;;5097908;28;20024;-81
2023/07/20 14:13:58;;;;;;;5.88;2.97;;;947.20;1305.60;;;;;;5081602;28;20028;-77
2023/07/20 14:16:24;;;;;;;3.78;2.80;;;922.40;1305.60;;;;;;5098834;28;20040;-80
2023/07/20 14:18:50;;;;;;;7.03;2.78;;;922.40;1305.60;;;;;;5098954;28;20072;-79
2023/07/20 14:21:20;;;;;;;5.22;2.95;;;922.30;1305.60;;;;;;5082213;28;20152;-81
2023/07/20 14:23:51;;;;;;;6.63;3.20;;;922.40;1280.00;;;;;;5081001;28;20035;-79
2023/07/20 14:26:17;;;;;;;7.50;3.05;;;922.20;1280.00;;;;;;5102558;28;20024;-80
2023/07/20 14:28:43;;;;;;;9.48;3.20;;;922.30;1280.00;;;;;;5098291;28;20024;-80
2023/07/20 14:31:09;;;;;;;4.85;2.85;;;922.50;1254.40;;;;;;5096798;28;20105;-80
2023/07/20 14:33:35;;;;;;;5.50;2.80;;;922.40;1228.80;;;;;;5102554;28;20039;-82
2023/07/20 14:36:01;;;;;;;6.72;2.90;;;922.50;1228.80;;;;;;5096970;28;20028;-80
2023/07/20 14:38:31;;;;;;;7.13;2.80;;;922.50;1228.80;;;;;;5097051;28;20111;-81
2023/07/20 14:40:57;;;;;;;5.15;2.60;;;922.50;1228.80;;;;;;5097674;28;20024;-82
2023/07/20 14:43:23;;;;;;;8.43;3.15;;;922.40;1228.80;;;;;;5099407;28;20494;-81
2023/07/20 14:45:49;;;;;;;7.63;3.10;;;922.40;1228.80;;;;;;5104718;28;20051;-82
2023/07/20 14:48:14;;;;;;;5.63;2.75;;;922.30;1228.80;;;;;;5104379;28;20089;-81
2023/07/20 14:50:40;;;;;;;6.05;2.72;;;922.20;1228.80;;;;;;5098803;28;20048;-80
2023/07/20 14:53:07;;;;;;;4.88;2.92;;;922.20;1228.80;;;;;;5102889;28;20027;-81
2023/07/20 14:55:33;;;;;;;4.18;2.75;;;922.30;1228.80;;;;;;5083463;28;20027;-81
2023/07/20 14:57:59;;;;;;;4.90;2.72;;;922.30;1228.80;;;;;;5083254;28;20036;-79
2023/07/20 15:00:25;;;;;;;6.30;2.90;;;922.20;1203.20;;;;;;5101674;28;20035;-83
2023/07/20 15:02:55;;;;;;;7.03;3.25;;;922.30;1228.80;;;;;;5098060;28;20116;-83
2023/07/20 15:05:23;;;;;;;6.22;2.90;;;922.00;1203.20;;;;;;5103748;28;20094;-83
2023/07/20 15:07:50;;;;;;;4.93;2.60;;;921.90;1203.20;;;;;;5087406;28;20094;-81
2023/07/20 15:10:16;;;;;;;7.03;2.92;;;922.10;1228.80;;;;;;5089437;28;20021;-81
2023/07/20 15:12:42;;;;;;;5.68;2.90;;;921.90;1228.80;;;;;;5107228;28;20031;-82
2023/07/20 15:15:10;;;;;;;6.72;3.28;;;921.90;1254.40;;;;;;5112267;28;20067;-81
2023/07/20 15:17:37;;;;;;;5.50;2.80;;;921.70;1254.40;;;;;;5110248;28;20024;-82
2023/07/20 15:20:04;;;;;;;4.78;3.40;;;921.90;1254.40;;;;;;5107656;28;20134;-80